createdAt,value
2022-08-22T00:00:57.719Z,99.99
2022-08-22T00:01:57.723Z,99.99
2022-08-22T00:03:00.127Z,99.99
2022-08-22T00:03:57.643Z,99.99
2022-08-22T00:04:57.631Z,99.99
2022-08-22T00:05:57.629Z,99.99
2022-08-22T00:06:57.648Z,99.99
2022-08-22T00:07:57.993Z,99.99
2022-08-22T00:08:57.598Z,99.99
2022-08-22T00:09:57.607Z,99.99
2022-08-22T00:10:57.599Z,99.99
2022-08-22T00:11:57.591Z,99.99
2022-08-22T00:12:57.593Z,99.99
2022-08-22T00:14:01.145Z,99.99
2022-08-22T00:14:57.569Z,99.99
2022-08-22T00:15:57.573Z,99.99
2022-08-22T00:16:57.758Z,99.99
2022-08-22T00:17:57.835Z,99.99
2022-08-22T00:18:57.597Z,99.99
2022-08-22T00:19:57.561Z,99.99
2022-08-22T00:20:57.536Z,99.99
2022-08-22T00:21:57.552Z,99.99
2022-08-22T00:22:57.523Z,99.99
2022-08-22T00:23:57.536Z,99.99
2022-08-22T00:24:57.517Z,99.99
2022-08-22T00:25:57.526Z,99.99
2022-08-22T00:26:57.519Z,99.99
2022-08-22T00:27:57.739Z,99.99
2022-08-22T00:28:57.517Z,99.99
2022-08-22T00:29:57.494Z,99.99
2022-08-22T00:30:57.704Z,99.99
2022-08-22T00:31:57.709Z,99.99
2022-08-22T00:32:57.484Z,99.99
2022-08-22T00:33:57.506Z,99.99
2022-08-22T00:34:57.487Z,99.99
2022-08-22T00:35:57.486Z,99.99
2022-08-22T00:36:57.453Z,99.99
2022-08-22T00:37:57.694Z,99.99
2022-08-22T00:38:57.437Z,99.99
2022-08-22T00:39:57.461Z,99.99
2022-08-22T00:40:57.440Z,99.99
2022-08-22T00:41:57.458Z,99.99
2022-08-22T00:42:57.426Z,99.99
2022-08-22T00:43:57.417Z,99.99
2022-08-22T00:44:57.411Z,99.99
2022-08-22T00:45:57.426Z,99.99
2022-08-22T00:46:57.377Z,99.99
2022-08-22T00:47:57.662Z,99.99
2022-08-22T00:48:57.386Z,99.99
2022-08-22T00:49:57.397Z,99.99
2022-08-22T00:50:57.346Z,99.99
2022-08-22T00:51:57.360Z,99.99
2022-08-22T00:52:57.361Z,99.99
2022-08-22T00:53:57.338Z,99.99
2022-08-22T00:54:57.366Z,99.99
2022-08-22T00:55:57.335Z,99.99
2022-08-22T00:56:57.329Z,99.99
2022-08-22T00:57:57.463Z,99.99
2022-08-22T00:58:57.345Z,99.99
2022-08-22T00:59:57.325Z,99.99
2022-08-22T01:00:57.457Z,99.99
2022-08-22T01:01:57.301Z,99.99
2022-08-22T01:02:57.316Z,99.99
2022-08-22T01:03:57.303Z,99.99
2022-08-22T01:04:57.274Z,99.99
2022-08-22T01:05:57.288Z,99.99
2022-08-22T01:06:57.277Z,99.99
2022-08-22T01:07:57.510Z,99.99
2022-08-22T01:08:57.227Z,99.99
2022-08-22T01:09:57.243Z,99.99
2022-08-22T01:10:57.242Z,99.99
2022-08-22T01:11:57.244Z,99.99
2022-08-22T01:12:57.213Z,99.99
2022-08-22T01:13:57.210Z,99.99
2022-08-22T01:14:57.213Z,99.99
2022-08-22T01:15:57.203Z,99.99
2022-08-22T01:16:57.198Z,99.99
2022-08-22T01:17:57.400Z,99.99
2022-08-22T01:18:57.183Z,99.99
2022-08-22T01:19:57.165Z,99.99
2022-08-22T01:20:57.186Z,99.99
2022-08-22T01:21:57.164Z,99.99
2022-08-22T01:22:57.175Z,99.99
2022-08-22T01:23:57.160Z,99.99
2022-08-22T01:24:57.167Z,99.99
2022-08-22T01:25:57.149Z,99.99
2022-08-22T01:26:57.454Z,99.99
2022-08-22T01:27:57.248Z,99.99
2022-08-22T01:28:57.117Z,99.99
2022-08-22T01:29:57.355Z,99.99
2022-08-22T01:30:57.123Z,99.99
2022-08-22T01:31:57.101Z,99.99
2022-08-22T01:32:57.360Z,99.99
2022-08-22T01:33:57.127Z,99.99
2022-08-22T01:34:57.102Z,99.99
2022-08-22T01:35:57.110Z,99.99
2022-08-22T01:36:57.073Z,99.99
2022-08-22T01:37:57.256Z,99.99
2022-08-22T01:38:57.064Z,99.99
2022-08-22T01:39:57.152Z,99.99
2022-08-22T01:40:57.044Z,99.99
2022-08-22T01:41:57.029Z,99.99
2022-08-22T01:42:57.097Z,99.99
2022-08-22T01:43:59.948Z,99.99
2022-08-22T01:44:57.021Z,99.99
2022-08-22T01:45:56.991Z,99.99
2022-08-22T01:46:57.019Z,99.99
2022-08-22T01:47:57.074Z,99.99
2022-08-22T01:48:56.991Z,99.99
2022-08-22T01:49:56.989Z,99.99
2022-08-22T01:50:56.987Z,99.99
2022-08-22T01:51:57.004Z,99.99
2022-08-22T01:52:56.960Z,99.99
2022-08-22T01:53:56.998Z,99.99
2022-08-22T01:54:56.962Z,99.99
2022-08-22T01:55:56.968Z,99.99
2022-08-22T01:56:56.923Z,99.99
2022-08-22T01:57:57.027Z,99.99
2022-08-22T01:58:56.968Z,99.99
2022-08-22T01:59:56.907Z,99.99
2022-08-22T02:00:56.959Z,99.99
2022-08-22T02:01:56.930Z,99.99
2022-08-22T02:02:56.944Z,99.99
2022-08-22T02:03:56.908Z,99.99
2022-08-22T02:04:56.926Z,99.99
2022-08-22T02:05:56.897Z,99.99
2022-08-22T02:06:56.875Z,99.99
2022-08-22T02:07:56.939Z,99.99
2022-08-22T02:08:56.860Z,99.99
2022-08-22T02:09:56.872Z,99.99
2022-08-22T02:10:56.880Z,99.99
2022-08-22T02:11:56.905Z,99.99
2022-08-22T02:12:56.845Z,99.99
2022-08-22T02:13:56.872Z,99.99
2022-08-22T02:14:56.844Z,99.99
2022-08-22T02:15:56.858Z,99.99
2022-08-22T02:16:56.841Z,99.99
2022-08-22T02:17:56.888Z,99.99
2022-08-22T02:18:56.873Z,99.99
2022-08-22T02:19:56.830Z,99.99
2022-08-22T02:20:56.817Z,99.99
2022-08-22T02:21:56.783Z,99.99
2022-08-22T02:22:56.792Z,99.99
2022-08-22T02:23:56.753Z,99.99
2022-08-22T02:24:56.791Z,99.99
2022-08-22T02:25:56.748Z,99.99
2022-08-22T02:26:56.740Z,99.99
2022-08-22T02:27:56.785Z,99.99
2022-08-22T02:28:57.859Z,99.99
2022-08-22T02:29:56.736Z,99.99
2022-08-22T02:30:56.748Z,99.99
2022-08-22T02:31:56.754Z,99.99
2022-08-22T02:32:56.735Z,99.99
2022-08-22T02:33:56.717Z,99.99
2022-08-22T02:34:56.718Z,99.99
2022-08-22T02:35:56.700Z,99.99
2022-08-22T02:36:58.226Z,99.99
2022-08-22T02:37:56.803Z,99.99
2022-08-22T02:38:56.662Z,99.99
2022-08-22T02:39:56.756Z,99.99
2022-08-22T02:40:56.659Z,99.99
2022-08-22T02:41:56.655Z,99.99
2022-08-22T02:42:56.636Z,99.99
2022-08-22T02:43:56.651Z,99.99
2022-08-22T02:44:56.622Z,99.99
2022-08-22T02:45:56.612Z,99.99
2022-08-22T02:46:56.618Z,99.99
2022-08-22T02:47:56.675Z,99.99
2022-08-22T02:48:56.610Z,99.99
2022-08-22T02:49:56.603Z,99.99
2022-08-22T02:50:56.599Z,99.99
2022-08-22T02:51:56.574Z,99.99
2022-08-22T02:52:56.563Z,99.99
2022-08-22T02:53:56.583Z,99.99
2022-08-22T02:54:56.571Z,99.99
2022-08-22T02:55:56.548Z,99.99
2022-08-22T02:56:56.564Z,99.99
2022-08-22T02:57:56.540Z,99.99
2022-08-22T02:58:59.215Z,99.99
2022-08-22T02:59:56.546Z,99.99
2022-08-22T03:00:56.570Z,99.99
2022-08-22T03:01:56.508Z,99.99
2022-08-22T03:02:56.525Z,99.99
2022-08-22T03:03:56.487Z,99.99
2022-08-22T03:04:56.524Z,99.99
2022-08-22T03:06:00.534Z,99.99
2022-08-22T03:06:56.498Z,99.99
2022-08-22T03:07:56.460Z,99.99
2022-08-22T03:08:56.501Z,99.99
2022-08-22T03:09:56.683Z,99.99
2022-08-22T03:10:56.445Z,99.99
2022-08-22T03:11:56.465Z,99.99
2022-08-22T03:12:57.654Z,99.99
2022-08-22T03:13:56.459Z,99.99
2022-08-22T03:14:56.438Z,99.99
2022-08-22T03:15:56.412Z,99.99
2022-08-22T03:16:56.420Z,99.99
2022-08-22T03:17:56.452Z,99.99
2022-08-22T03:18:56.412Z,99.99
2022-08-22T03:19:56.399Z,99.99
2022-08-22T03:20:56.378Z,99.99
2022-08-22T03:21:56.396Z,99.99
2022-08-22T03:22:56.362Z,99.99
2022-08-22T03:23:56.389Z,99.99
2022-08-22T03:24:56.377Z,99.99
2022-08-22T03:25:56.360Z,99.99
2022-08-22T03:26:56.336Z,99.99
2022-08-22T03:27:56.344Z,99.99
2022-08-22T03:29:00.212Z,99.99
2022-08-22T03:29:56.328Z,99.99
2022-08-22T03:30:56.325Z,99.99
2022-08-22T03:31:56.304Z,99.99
2022-08-22T03:32:56.337Z,99.99
2022-08-22T03:33:56.312Z,99.99
2022-08-22T03:34:56.285Z,99.99
2022-08-22T03:35:56.300Z,99.99
2022-08-22T03:36:56.299Z,99.99
2022-08-22T03:37:56.307Z,99.99
2022-08-22T03:38:56.253Z,99.99
2022-08-22T03:39:56.309Z,99.99
2022-08-22T03:40:56.283Z,99.99
2022-08-22T03:41:56.248Z,99.99
2022-08-22T03:42:56.255Z,99.99
2022-08-22T03:43:56.232Z,99.99
2022-08-22T03:44:56.210Z,99.99
2022-08-22T03:45:56.240Z,99.99
2022-08-22T03:46:56.210Z,99.99
2022-08-22T03:47:56.185Z,99.99
2022-08-22T03:48:56.193Z,99.99
2022-08-22T03:49:59.475Z,99.99
2022-08-22T03:50:56.215Z,99.99
2022-08-22T03:51:56.161Z,99.99
2022-08-22T03:52:56.194Z,99.99
2022-08-22T03:53:56.190Z,99.99
2022-08-22T03:54:56.167Z,99.99
2022-08-22T03:55:56.154Z,99.99
2022-08-22T03:56:57.549Z,99.99
2022-08-22T03:57:56.133Z,99.99
2022-08-22T03:58:56.112Z,99.99
2022-08-22T03:59:56.117Z,99.99
2022-08-22T04:00:56.168Z,99.99
2022-08-22T04:01:56.113Z,99.99
2022-08-22T04:02:56.084Z,99.99
2022-08-22T04:03:56.093Z,99.99
2022-08-22T04:04:56.351Z,99.99
2022-08-22T04:05:56.084Z,99.99
2022-08-22T04:06:56.368Z,99.99
2022-08-22T04:07:56.157Z,99.99
2022-08-22T04:08:56.045Z,99.99
2022-08-22T04:09:56.067Z,99.99
2022-08-22T04:10:56.037Z,99.99
2022-08-22T04:11:56.044Z,99.99
2022-08-22T04:12:56.071Z,99.99
2022-08-22T04:13:56.053Z,99.99
2022-08-22T04:14:56.029Z,99.99
2022-08-22T04:15:56.012Z,99.99
2022-08-22T04:16:56.020Z,99.99
2022-08-22T04:17:55.969Z,99.99
2022-08-22T04:18:56.034Z,99.99
2022-08-22T04:19:55.977Z,99.99
2022-08-22T04:20:55.976Z,99.99
2022-08-22T04:21:56.000Z,99.99
2022-08-22T04:22:56.000Z,99.99
2022-08-22T04:23:55.973Z,99.99
2022-08-22T04:24:55.997Z,99.99
2022-08-22T04:25:55.951Z,99.99
2022-08-22T04:26:55.986Z,99.99
2022-08-22T04:27:56.060Z,99.99
2022-08-22T04:28:55.908Z,99.99
2022-08-22T04:29:55.899Z,99.99
2022-08-22T04:30:55.909Z,99.99
2022-08-22T04:31:55.925Z,99.99
2022-08-22T04:32:55.883Z,99.99
2022-08-22T04:33:55.909Z,99.99
2022-08-22T04:34:56.071Z,99.99
2022-08-22T04:35:55.910Z,99.99
2022-08-22T04:36:55.884Z,99.99
2022-08-22T04:37:55.930Z,99.99
2022-08-22T04:38:55.891Z,99.99
2022-08-22T04:39:55.998Z,99.99
2022-08-22T04:40:55.819Z,99.99
2022-08-22T04:42:00.708Z,99.99
2022-08-22T04:42:56.063Z,99.99
2022-08-22T04:43:55.817Z,99.99
2022-08-22T04:44:55.827Z,99.99
2022-08-22T04:45:55.806Z,99.99
2022-08-22T04:46:55.817Z,99.99
2022-08-22T04:47:55.908Z,99.99
2022-08-22T04:48:55.802Z,99.99
2022-08-22T04:49:55.782Z,99.99
2022-08-22T04:50:55.789Z,99.99
2022-08-22T04:51:55.758Z,99.99
2022-08-22T04:52:55.760Z,99.99
2022-08-22T04:53:55.738Z,99.99
2022-08-22T04:54:55.737Z,99.99
2022-08-22T04:55:55.774Z,99.99
2022-08-22T04:56:55.716Z,99.99
2022-08-22T04:57:55.796Z,99.99
2022-08-22T04:58:55.786Z,99.99
2022-08-22T04:59:55.695Z,99.99
2022-08-22T05:00:55.761Z,99.99
2022-08-22T05:01:55.818Z,99.99
2022-08-22T05:02:55.713Z,99.99
2022-08-22T05:03:55.731Z,99.99
2022-08-22T05:04:55.654Z,99.99
2022-08-22T05:05:55.672Z,99.99
2022-08-22T05:06:55.637Z,99.99
2022-08-22T05:07:55.775Z,99.99
2022-08-22T05:08:55.630Z,99.99
2022-08-22T05:09:55.657Z,99.99
2022-08-22T05:10:55.625Z,99.99
2022-08-22T05:11:55.610Z,99.99
2022-08-22T05:12:55.591Z,99.99
2022-08-22T05:13:55.832Z,99.99
2022-08-22T05:14:55.616Z,99.99
2022-08-22T05:15:55.585Z,99.99
2022-08-22T05:16:55.588Z,99.99
2022-08-22T05:17:55.673Z,99.99
2022-08-22T05:18:55.774Z,99.99
2022-08-22T05:19:55.586Z,99.99
2022-08-22T05:20:55.547Z,99.99
2022-08-22T05:21:55.542Z,99.99
2022-08-22T05:22:55.549Z,99.99
2022-08-22T05:23:55.820Z,99.99
2022-08-22T05:24:55.532Z,99.99
2022-08-22T05:25:55.539Z,99.99
2022-08-22T05:26:55.535Z,99.99
2022-08-22T05:27:57.001Z,99.99
2022-08-22T05:28:55.491Z,99.99
2022-08-22T05:29:55.494Z,99.99
2022-08-22T05:30:55.505Z,99.99
2022-08-22T05:31:55.514Z,99.99
2022-08-22T05:32:55.487Z,99.99
2022-08-22T05:33:55.617Z,99.99
2022-08-22T05:34:55.476Z,99.99
2022-08-22T05:35:57.868Z,99.99
2022-08-22T05:36:55.531Z,99.99
2022-08-22T05:37:55.537Z,99.99
2022-08-22T05:38:55.453Z,99.99
2022-08-22T05:39:55.513Z,99.99
2022-08-22T05:40:55.446Z,99.99
2022-08-22T05:41:55.451Z,99.99
2022-08-22T05:42:55.418Z,99.99
2022-08-22T05:43:55.413Z,99.99
2022-08-22T05:44:55.464Z,99.99
2022-08-22T05:45:55.401Z,99.99
2022-08-22T05:46:55.399Z,99.99
2022-08-22T05:47:58.119Z,99.99
2022-08-22T05:48:55.404Z,99.99
2022-08-22T05:49:55.406Z,99.99
2022-08-22T05:50:55.392Z,99.99
2022-08-22T05:51:55.379Z,99.99
2022-08-22T05:52:55.383Z,99.99
2022-08-22T05:53:55.364Z,99.99
2022-08-22T05:54:55.577Z,99.99
2022-08-22T05:55:55.362Z,99.99
2022-08-22T05:56:55.427Z,99.99
2022-08-22T05:57:55.374Z,99.99
2022-08-22T05:58:55.341Z,99.99
2022-08-22T05:59:55.322Z,99.99
2022-08-22T06:00:55.350Z,99.99
2022-08-22T06:01:55.356Z,99.99
2022-08-22T06:02:55.311Z,99.99
2022-08-22T06:03:55.302Z,99.99
2022-08-22T06:04:55.298Z,99.99
2022-08-22T06:05:55.283Z,99.99
2022-08-22T06:06:55.286Z,99.99
2022-08-22T06:07:55.355Z,99.99
2022-08-22T06:08:55.478Z,99.99
2022-08-22T06:09:55.271Z,99.99
2022-08-22T06:10:55.266Z,99.99
2022-08-22T06:11:55.267Z,99.99
2022-08-22T06:12:55.269Z,99.99
2022-08-22T06:13:55.280Z,99.99
2022-08-22T06:14:55.253Z,99.99
2022-08-22T06:15:55.230Z,99.99
2022-08-22T06:16:55.237Z,99.99
2022-08-22T06:17:55.340Z,99.99
2022-08-22T06:18:55.210Z,99.99
2022-08-22T06:19:55.222Z,99.99
2022-08-22T06:20:55.234Z,99.99
2022-08-22T06:21:55.227Z,99.99
2022-08-22T06:22:55.211Z,99.99
2022-08-22T06:23:55.202Z,99.99
2022-08-22T06:24:55.188Z,99.99
2022-08-22T06:25:55.284Z,99.99
2022-08-22T06:26:55.195Z,99.99
2022-08-22T06:27:55.213Z,99.99
2022-08-22T06:28:55.871Z,99.99
2022-08-22T06:29:55.163Z,99.99
2022-08-22T06:30:55.183Z,99.99
2022-08-22T06:31:55.207Z,99.99
2022-08-22T06:33:00.248Z,99.99
2022-08-22T06:33:55.172Z,99.99
2022-08-22T06:34:55.210Z,99.99
2022-08-22T06:35:55.159Z,99.99
2022-08-22T06:36:55.147Z,99.99
2022-08-22T06:37:55.187Z,99.99
2022-08-22T06:38:55.116Z,99.99
2022-08-22T06:39:55.162Z,99.99
2022-08-22T06:40:55.146Z,99.99
2022-08-22T06:41:55.149Z,99.99
2022-08-22T06:42:55.346Z,99.99
2022-08-22T06:43:55.120Z,99.99
2022-08-22T06:44:55.102Z,99.99
2022-08-22T06:45:55.094Z,99.99
2022-08-22T06:46:55.091Z,99.99
2022-08-22T06:47:58.026Z,99.99
2022-08-22T06:48:55.075Z,99.99
2022-08-22T06:49:55.049Z,99.99
2022-08-22T06:50:55.065Z,99.99
2022-08-22T06:51:55.097Z,99.99
2022-08-22T06:52:55.106Z,99.99
2022-08-22T06:53:55.051Z,99.99
2022-08-22T06:54:55.451Z,99.99
2022-08-22T06:55:55.097Z,99.99
2022-08-22T06:56:55.043Z,99.99
2022-08-22T06:57:55.111Z,99.99
2022-08-22T06:58:55.076Z,99.99
2022-08-22T06:59:55.022Z,99.99
2022-08-22T07:01:11.955Z,99.99
2022-08-22T07:01:55.131Z,99.99
2022-08-22T07:02:55.008Z,99.99
2022-08-22T07:03:54.994Z,99.99
2022-08-22T07:04:55.031Z,99.99
2022-08-22T07:05:55.153Z,99.99
2022-08-22T07:06:55.029Z,99.99
2022-08-22T07:07:55.054Z,99.99
2022-08-22T07:08:54.996Z,99.99
2022-08-22T07:09:55.035Z,99.99
2022-08-22T07:10:55.014Z,99.99
2022-08-22T07:11:54.969Z,99.99
2022-08-22T07:12:54.977Z,99.99
2022-08-22T07:13:54.983Z,99.99
2022-08-22T07:14:54.970Z,99.99
2022-08-22T07:15:55.008Z,99.99
2022-08-22T07:16:55.171Z,99.99
2022-08-22T07:17:55.247Z,99.99
2022-08-22T07:18:54.958Z,99.99
2022-08-22T07:19:54.953Z,99.99
2022-08-22T07:20:55.232Z,99.99
2022-08-22T07:21:54.915Z,99.99
2022-08-22T07:22:54.915Z,99.99
2022-08-22T07:23:54.928Z,99.99
2022-08-22T07:24:54.942Z,99.99
2022-08-22T07:25:54.941Z,99.99
2022-08-22T07:26:54.911Z,99.99
2022-08-22T07:27:54.959Z,99.99
2022-08-22T07:28:58.442Z,99.99
2022-08-22T07:29:55.153Z,99.99
2022-08-22T07:30:54.903Z,99.99
2022-08-22T07:31:54.912Z,99.99
2022-08-22T07:32:54.926Z,99.99
2022-08-22T07:33:54.883Z,97.42
2022-08-22T07:34:54.905Z,98.00
2022-08-22T07:35:54.916Z,98.00
2022-08-22T07:36:54.910Z,99.07
2022-08-22T07:37:54.932Z,96.46
2022-08-22T07:38:54.873Z,96.94
2022-08-22T07:39:54.960Z,99.35
2022-08-22T07:40:54.853Z,96.56
2022-08-22T07:41:54.867Z,96.99
2022-08-22T07:42:54.882Z,96.41
2022-08-22T07:43:54.834Z,94.58
2022-08-22T07:44:54.864Z,93.81
2022-08-22T07:45:54.835Z,94.24
2022-08-22T07:46:54.828Z,94.20
2022-08-22T07:47:54.906Z,96.41
2022-08-22T07:49:08.693Z,95.84
2022-08-22T07:49:54.861Z,94.78
2022-08-22T07:50:54.831Z,94.15
2022-08-22T07:51:54.816Z,95.54
2022-08-22T07:52:54.790Z,97.19
2022-08-22T07:53:57.987Z,95.26
2022-08-22T07:54:54.820Z,93.91
2022-08-22T07:55:54.805Z,93.47
2022-08-22T07:56:54.799Z,92.12
2022-08-22T07:57:54.872Z,91.16
2022-08-22T07:58:54.788Z,90.05
2022-08-22T07:59:54.805Z,90.43
2022-08-22T08:00:54.863Z,89.85
2022-08-22T08:01:54.962Z,89.22
2022-08-22T08:02:54.822Z,90.28
2022-08-22T08:03:54.765Z,89.22
2022-08-22T08:04:54.815Z,88.45
2022-08-22T08:05:54.791Z,86.85
2022-08-22T08:06:54.780Z,86.65
2022-08-22T08:07:54.863Z,88.39
2022-08-22T08:08:54.761Z,86.32
2022-08-22T08:09:54.743Z,86.61
2022-08-22T08:10:54.773Z,87.29
2022-08-22T08:11:54.774Z,88.93
2022-08-22T08:13:02.305Z,88.49
2022-08-22T08:13:54.808Z,85.69
2022-08-22T08:14:54.800Z,86.99
2022-08-22T08:15:54.766Z,84.19
2022-08-22T08:16:54.770Z,83.26
2022-08-22T08:17:54.791Z,82.20
2022-08-22T08:18:54.737Z,80.59
2022-08-22T08:19:54.748Z,80.55
2022-08-22T08:20:54.730Z,82.00
2022-08-22T08:21:54.760Z,80.16
2022-08-22T08:22:54.737Z,81.95
2022-08-22T08:23:54.743Z,81.60
2022-08-22T08:24:54.748Z,77.14
2022-08-22T08:25:54.761Z,77.24
2022-08-22T08:26:54.734Z,78.25
2022-08-22T08:27:54.743Z,78.05
2022-08-22T08:28:54.744Z,76.79
2022-08-22T08:29:54.731Z,73.21
2022-08-22T08:30:54.739Z,72.47
2022-08-22T08:31:54.735Z,73.28
2022-08-22T08:32:57.576Z,71.77
2022-08-22T08:33:54.748Z,65.79
2022-08-22T08:34:54.753Z,67.24
2022-08-22T08:36:03.539Z,69.12
2022-08-22T08:36:54.749Z,69.32
2022-08-22T08:37:54.802Z,67.50
2022-08-22T08:38:54.778Z,66.53
2022-08-22T08:39:55.006Z,67.63
2022-08-22T08:40:54.787Z,67.60
2022-08-22T08:41:54.738Z,65.69
2022-08-22T08:42:54.780Z,63.56
2022-08-22T08:43:54.757Z,63.56
2022-08-22T08:44:54.801Z,64.56
2022-08-22T08:45:56.437Z,66.11
2022-08-22T08:46:55.559Z,65.75
2022-08-22T08:47:54.830Z,65.24
2022-08-22T08:48:54.765Z,66.60
2022-08-22T08:49:54.777Z,65.24
2022-08-22T08:50:54.754Z,65.05
2022-08-22T08:51:54.761Z,63.91
2022-08-22T08:52:54.755Z,63.23
2022-08-22T08:53:54.790Z,66.24
2022-08-22T08:54:54.773Z,65.47
2022-08-22T08:55:54.755Z,66.60
2022-08-22T08:56:54.792Z,67.34
2022-08-22T08:57:54.767Z,68.05
2022-08-22T08:58:54.767Z,67.14
2022-08-22T08:59:54.775Z,67.82
2022-08-22T09:00:54.814Z,67.44
2022-08-22T09:01:54.772Z,67.98
2022-08-22T09:02:54.783Z,69.31
2022-08-22T09:03:54.762Z,72.05
2022-08-22T09:04:54.814Z,68.27
2022-08-22T09:05:54.773Z,69.08
2022-08-22T09:06:56.850Z,67.14
2022-08-22T09:07:54.811Z,68.70
2022-08-22T09:08:55.886Z,67.82
2022-08-22T09:09:54.817Z,67.66
2022-08-22T09:10:54.788Z,67.99
2022-08-22T09:11:54.767Z,67.34
2022-08-22T09:13:11.661Z,66.95
2022-08-22T09:13:54.788Z,66.37
2022-08-22T09:14:54.765Z,65.79
2022-08-22T09:16:02.266Z,65.27
2022-08-22T09:16:54.744Z,66.76
2022-08-22T09:17:54.808Z,65.79
2022-08-22T09:18:54.788Z,65.79
2022-08-22T09:19:54.764Z,64.59
2022-08-22T09:21:45.614Z,67.73
2022-08-22T09:23:33.105Z,64.88
2022-08-22T09:24:33.060Z,64.30
2022-08-22T09:25:36.813Z,65.14
2022-08-22T09:26:33.082Z,66.99
2022-08-22T09:27:33.047Z,66.08
2022-08-22T09:28:33.240Z,66.92
2022-08-22T09:29:33.041Z,66.56
2022-08-22T09:30:33.054Z,67.11
2022-08-22T09:31:47.978Z,67.53
2022-08-22T09:32:33.143Z,67.24
2022-08-22T09:33:33.033Z,66.85
2022-08-22T09:34:33.095Z,66.56
2022-08-22T09:35:33.065Z,68.66
2022-08-22T09:36:33.239Z,69.18
2022-08-22T09:37:33.064Z,67.53
2022-08-22T09:38:33.046Z,65.69
2022-08-22T09:39:33.065Z,67.24
2022-08-22T09:40:33.067Z,67.63
2022-08-22T09:41:33.037Z,64.72
2022-08-22T09:42:33.053Z,66.75
2022-08-22T09:43:33.686Z,68.60
2022-08-22T09:44:33.064Z,67.82
2022-08-22T09:45:33.033Z,68.15
2022-08-22T09:46:36.901Z,68.92
2022-08-22T09:47:33.243Z,66.34
2022-08-22T09:48:33.066Z,64.47
2022-08-22T09:49:33.077Z,66.37
2022-08-22T09:50:33.033Z,67.82
2022-08-22T09:51:33.486Z,68.02
2022-08-22T09:52:36.202Z,67.60
2022-08-22T09:53:33.053Z,68.76
2022-08-22T09:54:33.036Z,67.69
2022-08-22T09:55:35.258Z,67.37
2022-08-22T09:56:33.072Z,69.92
2022-08-22T09:57:33.020Z,70.25
2022-08-22T09:58:34.283Z,69.89
2022-08-22T09:59:33.696Z,69.24
2022-08-22T10:00:33.009Z,67.34
2022-08-22T10:01:33.321Z,64.92
2022-08-22T10:02:33.022Z,63.65
2022-08-22T10:03:33.008Z,65.30
2022-08-22T10:04:33.005Z,63.56
2022-08-22T10:05:40.513Z,63.68
2022-08-22T10:06:33.013Z,64.46
2022-08-22T10:07:33.013Z,65.14
2022-08-22T10:08:33.009Z,63.46
2022-08-22T10:09:33.010Z,64.43
2022-08-22T10:10:32.986Z,63.07
2022-08-22T10:11:32.987Z,64.46
2022-08-22T10:12:36.038Z,64.07
2022-08-22T10:13:32.984Z,63.75
2022-08-22T10:14:33.028Z,62.13
2022-08-22T10:15:33.001Z,59.76
2022-08-22T10:16:32.979Z,61.55
2022-08-22T10:17:32.992Z,60.16
2022-08-22T10:18:32.989Z,62.07
2022-08-22T10:19:33.019Z,62.33
2022-08-22T10:20:33.001Z,62.85
2022-08-22T10:21:32.977Z,64.50
2022-08-22T10:22:32.988Z,63.36
2022-08-22T10:23:33.001Z,60.28
2022-08-22T10:24:32.999Z,62.55
2022-08-22T10:25:33.148Z,62.45
2022-08-22T10:26:37.945Z,60.44
2022-08-22T10:27:33.007Z,61.32
2022-08-22T10:28:33.009Z,59.86
2022-08-22T10:29:32.974Z,60.90
2022-08-22T10:30:33.034Z,59.44
2022-08-22T10:31:32.995Z,60.87
2022-08-22T10:32:32.988Z,59.90
2022-08-22T10:33:32.978Z,59.90
2022-08-22T10:34:33.071Z,60.28
2022-08-22T10:35:33.637Z,59.90
2022-08-22T10:36:32.978Z,59.80
2022-08-22T10:37:33.026Z,60.38
2022-08-22T10:38:36.064Z,59.19
2022-08-22T10:39:33.065Z,59.19
2022-08-22T10:40:33.001Z,61.07
2022-08-22T10:41:32.985Z,60.28
2022-08-22T10:42:35.158Z,59.80
2022-08-22T10:43:32.989Z,59.92
2022-08-22T10:44:32.983Z,59.15
2022-08-22T10:45:36.773Z,57.92
2022-08-22T10:46:32.992Z,58.50
2022-08-22T10:47:33.143Z,57.82
2022-08-22T10:48:32.967Z,56.01
2022-08-22T10:49:32.966Z,57.67
2022-08-22T10:50:32.965Z,60.77
2022-08-22T10:51:32.968Z,58.08
2022-08-22T10:52:32.969Z,59.44
2022-08-22T10:53:32.955Z,57.67
2022-08-22T10:54:32.969Z,59.51
2022-08-22T10:55:32.971Z,57.79
2022-08-22T10:56:32.980Z,56.98
2022-08-22T10:57:33.094Z,56.60
2022-08-22T10:58:32.985Z,57.34
2022-08-22T10:59:32.992Z,57.70
2022-08-22T11:00:33.079Z,59.06
2022-08-22T11:01:41.848Z,59.06
2022-08-22T11:02:33.029Z,59.26
2022-08-22T11:03:33.035Z,57.61
2022-08-22T11:04:32.981Z,59.06
2022-08-22T11:05:32.946Z,58.00
2022-08-22T11:06:32.947Z,59.26
2022-08-22T11:07:32.970Z,60.03
2022-08-22T11:08:34.661Z,58.58
2022-08-22T11:09:36.930Z,59.26
2022-08-22T11:10:34.923Z,58.90
2022-08-22T11:11:33.084Z,59.28
2022-08-22T11:12:34.824Z,57.73
2022-08-22T11:13:32.961Z,57.54
2022-08-22T11:14:32.952Z,57.61
2022-08-22T11:15:35.212Z,58.67
2022-08-22T11:16:36.679Z,59.94
2022-08-22T11:17:35.520Z,60.03
2022-08-22T11:18:32.969Z,61.19
2022-08-22T11:19:32.965Z,59.26
2022-08-22T11:20:32.984Z,58.48
2022-08-22T11:21:32.957Z,59.19
2022-08-22T11:22:33.005Z,59.19
2022-08-22T11:23:33.103Z,57.73
2022-08-22T11:24:35.616Z,59.41
2022-08-22T11:25:38.864Z,59.12
2022-08-22T11:26:35.812Z,60.90
2022-08-22T11:27:37.989Z,57.21
2022-08-22T11:28:32.932Z,55.17
2022-08-22T11:29:32.938Z,55.92
2022-08-22T11:30:36.371Z,57.57
2022-08-22T11:31:36.621Z,56.98
2022-08-22T11:32:32.940Z,57.86
2022-08-22T11:33:46.735Z,56.60
2022-08-22T11:34:32.937Z,57.47
2022-08-22T11:35:33.103Z,57.60
2022-08-22T11:36:32.934Z,58.05
2022-08-22T11:37:42.981Z,57.67
2022-08-22T11:38:33.075Z,59.44
2022-08-22T11:39:32.911Z,57.50
2022-08-22T11:40:32.907Z,55.92
2022-08-22T11:41:32.935Z,55.02
2022-08-22T11:42:33.179Z,55.89
2022-08-22T11:43:32.891Z,55.57
2022-08-22T11:44:34.331Z,55.87
2022-08-22T11:45:32.895Z,56.83
2022-08-22T11:46:32.936Z,57.29
2022-08-22T11:47:32.888Z,58.06
2022-08-22T11:48:32.922Z,57.87
2022-08-22T11:49:33.102Z,57.87
2022-08-22T11:50:32.911Z,58.36
2022-08-22T11:51:34.329Z,57.97
2022-08-22T11:52:32.943Z,59.33
2022-08-22T11:53:32.903Z,58.55
2022-08-22T11:54:32.915Z,58.48
2022-08-22T11:55:34.514Z,57.00
2022-08-22T11:56:32.916Z,56.54
2022-08-22T11:57:32.920Z,57.32
2022-08-22T11:58:32.914Z,56.83
2022-08-22T11:59:32.873Z,56.54
2022-08-22T12:00:33.206Z,57.51
2022-08-22T12:01:34.163Z,57.25
2022-08-22T12:02:32.929Z,55.11
2022-08-22T12:03:32.882Z,55.79
2022-08-22T12:04:32.891Z,57.25
2022-08-22T12:05:32.872Z,54.72
2022-08-22T12:06:34.702Z,54.14
2022-08-22T12:07:32.875Z,55.89
2022-08-22T12:08:32.888Z,55.21
2022-08-22T12:09:33.831Z,55.21
2022-08-22T12:10:32.857Z,54.90
2022-08-22T12:11:32.884Z,57.12
2022-08-22T12:12:32.920Z,57.61
2022-08-22T12:13:34.741Z,57.80
2022-08-22T12:14:32.891Z,54.90
2022-08-22T12:15:33.488Z,57.48
2022-08-22T12:16:33.195Z,57.19
2022-08-22T12:17:55.960Z,57.58
2022-08-22T12:18:32.856Z,57.58
2022-08-22T12:19:33.127Z,57.19
2022-08-22T12:20:32.832Z,57.97
2022-08-22T12:21:32.841Z,57.36
2022-08-22T12:22:32.830Z,59.10
2022-08-22T12:23:48.780Z,58.23
2022-08-22T12:24:32.847Z,58.94
2022-08-22T12:25:32.839Z,56.41
2022-08-22T12:26:32.839Z,56.20
2022-08-22T12:27:32.823Z,57.45
2022-08-22T12:28:32.835Z,57.55
2022-08-22T12:29:33.796Z,58.04
2022-08-22T12:30:32.885Z,60.94
2022-08-22T12:31:32.814Z,59.20
2022-08-22T12:32:32.830Z,58.55
2022-08-22T12:33:33.114Z,59.91
2022-08-22T12:34:32.819Z,59.94
2022-08-22T12:35:32.874Z,57.70
2022-08-22T12:36:32.807Z,57.70
2022-08-22T12:37:32.854Z,58.87
2022-08-22T12:38:37.729Z,56.71
2022-08-22T12:39:32.819Z,57.87
2022-08-22T12:40:32.904Z,57.09
2022-08-22T12:41:35.138Z,58.29
2022-08-22T12:42:32.838Z,58.70
2022-08-22T12:43:32.836Z,56.15
2022-08-22T12:44:32.786Z,57.51
2022-08-22T12:45:32.839Z,56.93
2022-08-22T12:46:32.800Z,56.93
2022-08-22T12:47:34.409Z,57.42
2022-08-22T12:48:32.817Z,58.84
2022-08-22T12:49:32.826Z,58.74
2022-08-22T12:50:32.793Z,59.26
2022-08-22T12:51:32.808Z,58.77
2022-08-22T12:52:33.147Z,58.87
2022-08-22T12:53:32.783Z,58.58
2022-08-22T12:54:32.783Z,58.48